メインページ
METAR-TAF:

METAR-TAF

空港 :

アルマトイ, カザフスタン

アルマトイ国際空港

緯度: 43-14N, 経度: 076-56E, 海抜: 847m

現時点の気象観測

当レポートは15分前の12:00(UTC)に作成
北/北西の風 4kt
気温 5°C
湿度 70%
気圧 1018 hPa
視程10km以上
高度10000ftの雲は散在している
高度20000ftの千切れ雲あり

METAR: UAAA 241200Z 34002MPS 9999 SCT100 BKN200 05/00 Q1018 R88/91//50 NOSIG

時間: 18:15 (12:15 UTC)

予報

当レポートは1時間15分前の11:00(UTC)に作成
予報は24日の 12時(UTC)から 25日の 12時(UTC)まで有効
南/南東の風 10kt
視程: 3000m
高度1000ftの千切れ雲あり
高度10000ftの千切れ雲あり
靄, 煙
24日の 12時(UTC)から 24日の 18時(UTC)まで一時的に
視程: 0200m
高度200ftの
24日の 18時(UTC)から 25日の 06時(UTC)まで一時的に
視程: 0200m
高度100ftの
小雪, 着氷性の霧
25日の 06時(UTC)から 25日の 07時(UTC)まで徐々に
西の風 10kt
高度5000ftの雲は散在している, 積乱雲.
高度10000ftの千切れ雲あり

TAF: UAAA 241100Z 2412/2512 16005MPS 3000 BR FU BKN010 BKN100 TX10/2509Z TNM02/2501Z TEMPO 2412/2418 0200 FG VV002 TEMPO 2418/2506 0200 -SN FZFG VV001 BECMG 2506/2507 26005MPS SCT050CB BKN100

4,000以上の空港の気象観測と天気予報(METAR報とTAF報)

利用可能な観測所は地図上に黄色い丸と赤い丸で示す。

丸の上にカーソルを重ねると観測所名を参照できる。

次にクリックすると気象観測と天気予報を参照できる。

マップの切り替え:黒色「×」印の緑ボタンをクリックして拡大、「-」印の緑ボタンをクリックして縮小、緑色の三角印をクリックして隣りの地図に切り替え


METAR-TAF: